KDTN/DTN METAR and TAF weather

Enter ICAO airport designator
Station Type Date Time Source
KDTN METAR 2019/06/24 22:53 UTC NOAA

KDTN 242253Z 19007KT 10SM FEW044 29/22 A2992 RMK AO2 SLP129 T02890222


Station Type Date Time Source
KDTN Decoded METAR 2019/06/24 22:53 UTC NOAA

SHREVEPORT DOWNTOWN AIRPORT, LA, United States (KDTN) 32-32N 093-45W 53M
Jun 24, 2019 - 06:53 PM EDT / 2019.06.24 2253 UTC
Wind: from the S (190 degrees) at 8 MPH (7 KT):0
Visibility: 10 mile(s):0
Sky conditions: mostly clear
Temperature: 84.0 F (28.9 C)
Dew Point: 72.0 F (22.2 C)
Relative Humidity: 67%
Pressure (altimeter): 29.92 in. Hg (1013 hPa)
ob: KDTN 242253Z 19007KT 10SM FEW044 29/22 A2992 RMK AO2 SLP129 T02890222
cycle: 23

Station Type Date Time Source
KDTN TAF UTC NOAA

Error!

Example: see airport list